Portada
METAR-TAF:

METAR-TAF

Aeropuertos :

Aeropuerto Internacional de Dakar-Yoff/Léopold Sédar Senghor

Dakar, Senegal

latitud: 14-44N, longitud: 017-30W, altitud: 27 m

Observación

El informe se hizo hace 28 minutos, a las 06:00 UTC
Viento calma
Temperatura 25°C
Humedad 83%
Presión 1011 hPa
Visibilidad: 8000 m
Escasas nubes a una altura de 1300 ft

METAR: GOOY 220600Z 00000KT 8000 FEW013 25/22 Q1011

Hora: 06:28 (06:28 UTC)

Pronóstico

El informe se hizo hace 58 minutos, a las 05:30 UTC
Pronóstico válido del 22 a las 06 UTC al 23 a las 12 UTC
Viento 8 kt del oeste
Visibilidad 10 km o más
Nubes dispersas a una altura de 1300 ft

TAF: GOOY 220530Z 2206/2312 28008KT 9999 SCT013

Observaciones y pronósticos meteorológicos de más de 4000 aeropuertos (mensajes METAR y TAF).

Los puntos amarillos y rojos representan las estaciones disponibles.

Ponga el ratón en el punto deseado para ver el nombre de la estación.

Haga clic para ver las observaciones y los pronósticos meteorológicos.

Para cambiar el mapa : haga clic en los botones verdes con una cruz de color negro para hacer un zoom, en el botón verde con un guión para alejar o en las flechas verdes para mapas adyacentes.


METAR-TAF: